createdAt,value
2017-12-04T20:01:00.305Z,14.82
2017-12-04T20:04:10.769Z,20.03
2017-12-04T20:06:36.536Z,15.40
2017-12-04T20:09:02.315Z,13.97
2017-12-04T20:11:28.076Z,17.33
2017-12-04T20:13:53.852Z,13.43
2017-12-04T20:16:19.612Z,15.37
2017-12-04T20:18:45.380Z,20.80
2017-12-04T20:21:11.157Z,15.47
2017-12-04T20:23:36.925Z,16.83
2017-12-04T20:26:02.688Z,15.53
2017-12-04T20:28:28.448Z,14.00
2017-12-04T20:30:54.331Z,26.33
2017-12-04T20:33:20.108Z,16.67
2017-12-04T20:35:45.992Z,17.27
2017-12-04T20:38:11.735Z,21.20
2017-12-04T20:40:37.507Z,18.90
2017-12-04T20:43:03.253Z,16.80
2017-12-04T20:45:29.046Z,22.23
2017-12-04T20:47:54.835Z,28.90
2017-12-04T20:50:20.627Z,14.83
2017-12-04T20:52:46.398Z,16.33
2017-12-04T20:55:12.213Z,19.87
2017-12-04T20:57:37.971Z,17.90
2017-12-04T21:00:03.738Z,16.13
2017-12-04T21:02:29.522Z,15.33
2017-12-04T21:04:55.302Z,17.10
2017-12-04T21:07:31.043Z,19.43
2017-12-04T21:10:09.297Z,20.12
2017-12-04T21:12:35.084Z,15.73
2017-12-04T21:15:13.215Z,20.30
2017-12-04T21:17:38.993Z,18.37
2017-12-04T21:20:04.743Z,14.73
2017-12-04T21:22:30.528Z,20.03
2017-12-04T21:24:56.304Z,17.07
2017-12-04T21:27:22.101Z,19.50
2017-12-04T21:29:47.876Z,18.27
2017-12-04T21:32:13.644Z,13.67
2017-12-04T21:34:39.592Z,20.80
2017-12-04T21:37:05.463Z,18.02
2017-12-04T21:39:31.220Z,18.90
2017-12-04T21:41:56.971Z,17.43
2017-12-04T21:44:22.744Z,24.77
2017-12-04T21:46:48.549Z,18.30
2017-12-04T21:49:14.318Z,13.53
2017-12-04T21:51:40.080Z,21.37
2017-12-04T21:54:05.864Z,20.60
2017-12-04T21:56:31.651Z,21.97
2017-12-04T21:58:57.422Z,15.97
2017-12-04T22:01:23.192Z,19.20
2017-12-04T22:03:48.972Z,23.10
2017-12-04T22:06:14.748Z,22.07
2017-12-04T22:08:40.527Z,28.17
2017-12-04T22:11:06.288Z,23.13
2017-12-04T22:13:32.061Z,21.67
2017-12-04T22:15:57.823Z,18.30
2017-12-04T22:18:23.592Z,20.43
2017-12-04T22:20:49.361Z,23.63
2017-12-04T22:23:15.158Z,21.57
2017-12-04T22:25:40.922Z,19.83
2017-12-04T22:28:06.674Z,15.70
2017-12-04T22:30:32.500Z,18.63
2017-12-04T22:32:58.420Z,18.70
2017-12-04T22:35:24.260Z,15.07
2017-12-04T22:37:50.009Z,16.93
2017-12-04T22:40:15.772Z,13.33
2017-12-04T22:42:41.617Z,16.47
2017-12-04T22:45:07.400Z,12.07
2017-12-04T22:47:33.261Z,8.40
2017-12-04T22:49:59.023Z,10.43
2017-12-04T22:52:24.780Z,13.30
2017-12-04T22:54:50.583Z,13.57
2017-12-04T22:57:16.336Z,13.30
2017-12-04T22:59:42.100Z,9.60
2017-12-04T23:02:07.917Z,10.77
2017-12-04T23:04:33.704Z,4.83
2017-12-04T23:06:59.493Z,6.20
2017-12-04T23:09:25.262Z,5.70
2017-12-04T23:11:51.024Z,5.80
2017-12-04T23:14:16.816Z,5.03
2017-12-04T23:16:42.584Z,4.97
2017-12-04T23:19:08.365Z,4.70
2017-12-04T23:21:34.208Z,4.60
2017-12-04T23:23:59.964Z,3.00
2017-12-04T23:26:25.721Z,4.53
2017-12-04T23:28:51.485Z,3.43
2017-12-04T23:33:49.898Z,2.87
2017-12-04T23:36:15.684Z,4.40
2017-12-04T23:38:41.444Z,5.83
2017-12-04T23:41:07.209Z,3.80
2017-12-04T23:43:32.970Z,5.47
2017-12-04T23:46:05.707Z,4.83
2017-12-04T23:48:31.470Z,8.57
2017-12-04T23:50:57.240Z,10.50
2017-12-04T23:53:22.995Z,11.67
2017-12-04T23:55:48.772Z,13.00
2017-12-04T23:58:14.536Z,13.13
